Time;durP1;ratioP1;P1;durP2;ratioP2;P2;SDS_P1;SDS_P2;PMS_P1;PMS_P2;Temp;Humidity;BMP_temperature;BMP_pressure;BME280_temperature;BME280_humidity;BME280_pressure;Samples;Min_cycle;Max_cycle;Signal;HPM_P1;HPM_P2
2023/12/14 00:00:31;;;;;;;10.13;6.25;;;23.60;55.10;;;;;;5067899;28;20032;-76
2023/12/14 00:02:58;;;;;;;9.52;6.10;;;23.60;55.20;;;;;;5069574;28;20546;-75
2023/12/14 00:05:24;;;;;;;11.07;7.40;;;23.70;55.60;;;;;;5053734;28;20379;-76
2023/12/14 00:07:50;;;;;;;9.02;5.55;;;23.50;55.10;;;;;;5061380;28;20032;-76
2023/12/14 00:10:19;;;;;;;9.32;6.35;;;23.60;55.20;;;;;;5071643;28;20064;-76
2023/12/14 00:12:45;;;;;;;9.85;6.38;;;23.70;55.30;;;;;;5066435;28;20035;-74
2023/12/14 00:15:11;;;;;;;11.02;7.03;;;23.70;55.30;;;;;;5051887;28;20049;-75
2023/12/14 00:17:37;;;;;;;9.38;6.53;;;23.60;55.10;;;;;;5050282;28;20049;-76
2023/12/14 00:20:04;;;;;;;10.07;7.07;;;23.70;55.20;;;;;;5070889;28;20039;-75
2023/12/14 00:22:30;;;;;;;11.43;7.03;;;23.60;55.10;;;;;;5069734;28;20129;-75
2023/12/14 00:24:56;;;;;;;9.77;6.18;;;23.70;55.20;;;;;;5058576;28;20040;-76
2023/12/14 00:27:22;;;;;;;11.65;6.38;;;23.50;55.20;;;;;;5052911;28;20056;-76
2023/12/14 00:29:48;;;;;;;8.07;5.88;;;23.50;55.20;;;;;;5071132;28;20387;-75
2023/12/14 00:32:14;;;;;;;10.20;7.07;;;23.60;55.20;;;;;;5067082;28;20551;-76
2023/12/14 00:34:41;;;;;;;9.90;5.25;;;23.50;55.20;;;;;;5070556;28;20032;-75
2023/12/14 00:37:07;;;;;;;8.82;5.38;;;23.50;55.30;;;;;;5050837;28;20411;-76
2023/12/14 00:39:33;;;;;;;11.05;5.72;;;23.50;55.30;;;;;;5070588;28;20025;-76
2023/12/14 00:41:59;;;;;;;9.88;6.43;;;23.40;55.20;;;;;;5030995;28;20047;-75
2023/12/14 00:44:25;;;;;;;11.38;6.22;;;23.40;55.20;;;;;;5069592;28;20028;-75
2023/12/14 00:46:51;;;;;;;9.60;6.68;;;23.30;55.30;;;;;;5056013;28;20060;-76
2023/12/14 00:49:19;;;;;;;10.88;6.45;;;23.40;55.30;;;;;;5050846;28;20045;-75
2023/12/14 00:51:45;;;;;;;10.20;6.53;;;23.40;55.20;;;;;;5034033;28;20033;-76
2023/12/14 00:54:11;;;;;;;9.65;7.13;;;23.50;55.30;;;;;;5050617;28;20033;-76
2023/12/14 00:56:37;;;;;;;10.52;6.45;;;23.40;55.20;;;;;;5054581;28;20041;-75
2023/12/14 00:59:03;;;;;;;11.57;6.57;;;23.50;55.30;;;;;;5056706;28;20206;-76
2023/12/14 01:01:29;;;;;;;12.82;7.47;;;23.50;55.30;;;;;;5068622;28;20121;-76
2023/12/14 01:03:55;;;;;;;13.15;7.70;;;23.50;55.30;;;;;;5070523;28;20044;-75
2023/12/14 01:06:21;;;;;;;10.25;6.05;;;23.50;55.30;;;;;;5070288;28;20091;-76
2023/12/14 01:08:48;;;;;;;11.30;6.63;;;23.50;55.20;;;;;;5069925;28;20040;-76
2023/12/14 01:11:14;;;;;;;8.85;6.35;;;23.50;55.20;;;;;;5057047;28;20044;-75
2023/12/14 01:13:40;;;;;;;10.00;5.65;;;23.50;55.20;;;;;;5042860;28;20033;-76
2023/12/14 01:16:06;;;;;;;10.75;6.65;;;23.50;55.10;;;;;;5062311;28;20056;-76
2023/12/14 01:18:33;;;;;;;10.65;6.30;;;23.50;55.10;;;;;;5068213;28;20388;-76
2023/12/14 01:20:59;;;;;;;10.35;6.97;;;23.50;55.10;;;;;;5063726;28;20399;-76
2023/12/14 01:23:25;;;;;;;8.25;5.85;;;23.60;55.20;;;;;;5068725;28;20040;-76
2023/12/14 01:25:51;;;;;;;9.32;6.30;;;23.60;55.20;;;;;;5069388;28;20037;-74
2023/12/14 01:28:17;;;;;;;9.95;6.47;;;23.40;55.10;;;;;;5054228;28;20523;-76
2023/12/14 01:30:43;;;;;;;10.07;6.03;;;23.40;55.10;;;;;;5055567;28;20028;-74
2023/12/14 01:33:09;;;;;;;9.82;6.40;;;23.40;55.20;;;;;;5054255;28;20036;-76
2023/12/14 01:35:35;;;;;;;11.20;6.30;;;23.30;55.20;;;;;;5050243;28;20036;-76
2023/12/14 01:38:01;;;;;;;7.07;4.60;;;23.20;55.10;;;;;;5051659;28;20033;-73
2023/12/14 01:40:27;;;;;;;4.30;3.53;;;23.20;55.20;;;;;;5050409;28;20459;-75
2023/12/14 01:42:53;;;;;;;8.77;5.82;;;23.30;55.30;;;;;;5063944;28;20056;-76
2023/12/14 01:45:20;;;;;;;9.68;6.40;;;23.40;55.40;;;;;;5068273;28;20487;-76
2023/12/14 01:47:46;;;;;;;9.95;6.65;;;23.30;55.40;;;;;;5062894;28;20029;-75
2023/12/14 01:50:12;;;;;;;8.07;5.43;;;23.20;55.30;;;;;;5020179;28;20457;-75
2023/12/14 01:52:38;;;;;;;8.73;6.40;;;23.40;55.30;;;;;;5056151;28;20040;-76
2023/12/14 01:55:04;;;;;;;9.68;6.22;;;23.30;55.30;;;;;;5054084;28;20025;-76
2023/12/14 01:57:30;;;;;;;12.18;6.30;;;23.40;55.40;;;;;;5048570;28;20513;-76
2023/12/14 01:59:56;;;;;;;12.25;6.93;;;23.50;55.40;;;;;;5069039;28;20021;-76
2023/12/14 02:02:22;;;;;;;6.85;5.47;;;23.40;55.30;;;;;;5072158;28;20146;-77
2023/12/14 02:04:48;;;;;;;10.50;6.35;;;23.40;55.30;;;;;;5073895;28;20062;-76
2023/12/14 02:07:15;;;;;;;7.45;5.03;;;23.40;55.30;;;;;;5053779;28;20079;-77
2023/12/14 02:09:40;;;;;;;7.03;4.88;;;23.40;55.30;;;;;;5073813;28;20417;-76
2023/12/14 02:12:06;;;;;;;7.75;4.47;;;23.40;55.20;;;;;;5062721;28;20472;-73
2023/12/14 02:14:33;;;;;;;14.05;6.57;;;23.50;55.30;;;;;;5072814;28;20075;-75
2023/12/14 02:16:59;;;;;;;8.82;6.10;;;23.40;55.20;;;;;;5068174;28;20488;-76
2023/12/14 02:19:25;;;;;;;13.75;7.28;;;23.40;55.20;;;;;;5079664;28;20035;-76
2023/12/14 02:21:51;;;;;;;9.48;6.32;;;23.40;55.20;;;;;;5075012;28;20747;-75
2023/12/14 02:24:17;;;;;;;11.13;7.30;;;23.40;55.20;;;;;;5073501;28;20116;-76
2023/12/14 02:26:43;;;;;;;8.68;6.03;;;23.20;55.10;;;;;;5085442;28;20119;-75
2023/12/14 02:29:09;;;;;;;10.07;5.78;;;23.20;55.10;;;;;;5093745;28;20036;-75
2023/12/14 02:31:35;;;;;;;8.80;5.50;;;23.20;55.20;;;;;;5092998;28;20152;-76
2023/12/14 02:34:01;;;;;;;11.05;6.75;;;23.30;55.30;;;;;;5091350;28;20048;-76
2023/12/14 02:36:27;;;;;;;9.93;6.25;;;23.30;55.40;;;;;;5091919;28;20031;-76
2023/12/14 02:38:53;;;;;;;12.60;6.65;;;23.20;55.30;;;;;;5087043;28;20032;-75
2023/12/14 02:41:19;;;;;;;10.77;6.53;;;23.20;55.30;;;;;;5089736;28;20130;-76
2023/12/14 02:43:45;;;;;;;9.23;5.75;;;23.10;55.40;;;;;;5080133;28;20029;-75
2023/12/14 02:46:15;;;;;;;10.75;6.68;;;23.20;55.40;;;;;;5082053;28;20435;-76
2023/12/14 02:48:42;;;;;;;12.05;6.72;;;23.10;55.40;;;;;;5093448;28;20036;-77
2023/12/14 02:51:13;;;;;;;11.07;6.57;;;23.20;55.40;;;;;;5092124;28;20062;-76
2023/12/14 02:53:39;;;;;;;7.95;4.57;;;23.20;55.40;;;;;;5077952;28;20039;-75
2023/12/14 02:56:05;;;;;;;10.13;6.50;;;23.20;55.30;;;;;;5073105;28;20056;-76
2023/12/14 02:58:31;;;;;;;7.70;6.07;;;23.30;55.40;;;;;;5073327;28;20037;-76
2023/12/14 03:00:57;;;;;;;9.10;6.85;;;23.20;55.30;;;;;;5073622;28;20043;-75
2023/12/14 03:03:23;;;;;;;8.32;6.28;;;23.20;55.30;;;;;;5083905;28;20043;-76
2023/12/14 03:05:50;;;;;;;9.10;6.28;;;23.20;55.30;;;;;;5092513;28;20030;-76
2023/12/14 03:08:16;;;;;;;10.43;7.10;;;23.30;55.30;;;;;;5082561;28;20032;-76
2023/12/14 03:10:42;;;;;;;10.25;6.22;;;23.20;55.30;;;;;;5073840;28;20106;-75
2023/12/14 03:13:07;;;;;;;9.80;6.25;;;23.30;55.30;;;;;;5088995;28;20024;-76
2023/12/14 03:15:34;;;;;;;9.32;5.82;;;23.20;55.10;;;;;;5080513;28;20056;-76
2023/12/14 03:18:00;;;;;;;11.70;7.07;;;23.20;55.10;;;;;;5055172;28;20087;-76
2023/12/14 03:20:26;;;;;;;9.60;5.82;;;23.30;55.20;;;;;;5034599;28;20037;-75
2023/12/14 03:22:52;;;;;;;10.60;6.00;;;23.20;55.10;;;;;;5065499;28;20086;-76
2023/12/14 03:25:18;;;;;;;10.13;6.53;;;23.30;55.20;;;;;;5072020;28;20044;-76
2023/12/14 03:27:44;;;;;;;8.77;6.15;;;23.10;55.20;;;;;;5072067;28;20032;-76
2023/12/14 03:30:11;;;;;;;10.75;6.80;;;23.20;55.20;;;;;;5071407;28;20089;-76
2023/12/14 03:32:37;;;;;;;10.88;6.22;;;23.10;55.20;;;;;;5013201;28;20080;-74
2023/12/14 03:35:03;;;;;;;9.68;6.75;;;23.20;55.20;;;;;;5029332;28;20095;-76
2023/12/14 03:37:29;;;;;;;16.85;6.68;;;23.00;55.20;;;;;;5026769;28;20064;-76
2023/12/14 03:39:55;;;;;;;12.02;6.70;;;23.10;55.30;;;;;;5009734;28;20165;-76
2023/12/14 03:42:22;;;;;;;9.50;7.13;;;23.00;55.20;;;;;;5002737;28;20741;-76
2023/12/14 03:44:48;;;;;;;11.30;6.15;;;23.00;55.30;;;;;;5019392;28;20456;-74
2023/12/14 03:47:14;;;;;;;10.10;6.53;;;23.00;55.30;;;;;;5028809;28;20129;-73
2023/12/14 03:49:40;;;;;;;10.45;6.57;;;23.00;55.30;;;;;;5029122;28;20119;-76
2023/12/14 03:52:06;;;;;;;10.10;6.20;;;23.00;55.30;;;;;;5022559;28;20120;-74
2023/12/14 03:54:32;;;;;;;14.48;7.57;;;23.00;55.20;;;;;;5009911;28;20129;-76
2023/12/14 03:56:58;;;;;;;11.05;6.85;;;23.10;55.30;;;;;;5021369;28;20045;-75
2023/12/14 03:59:24;;;;;;;9.82;6.68;;;23.10;55.30;;;;;;5012873;28;20057;-75
2023/12/14 04:01:50;;;;;;;10.05;6.63;;;23.10;55.30;;;;;;5028250;28;20044;-76
2023/12/14 04:04:16;;;;;;;10.43;6.80;;;23.10;55.20;;;;;;5027298;28;20056;-76
2023/12/14 04:06:42;;;;;;;9.93;6.63;;;23.10;55.20;;;;;;5009636;28;20477;-77
2023/12/14 04:09:08;;;;;;;9.55;6.13;;;23.20;55.20;;;;;;5014439;28;20030;-75
2023/12/14 04:11:34;;;;;;;9.63;6.70;;;23.20;55.10;;;;;;5052691;28;20066;-76
2023/12/14 04:14:00;;;;;;;9.82;6.68;;;23.00;55.00;;;;;;5058830;28;20028;-75
2023/12/14 04:16:26;;;;;;;12.18;6.35;;;23.10;55.10;;;;;;5060738;28;20467;-76
2023/12/14 04:18:52;;;;;;;10.95;6.40;;;23.10;55.10;;;;;;5067444;28;20086;-76
2023/12/14 04:21:18;;;;;;;8.93;5.82;;;23.10;55.10;;;;;;5051283;28;20132;-76
2023/12/14 04:23:45;;;;;;;8.32;5.50;;;23.10;55.10;;;;;;5062113;28;20032;-75
2023/12/14 04:26:11;;;;;;;9.45;6.28;;;23.10;55.20;;;;;;5061863;28;20025;-76
2023/12/14 04:28:37;;;;;;;12.55;5.57;;;23.00;55.10;;;;;;5051368;28;20033;-76
2023/12/14 04:31:04;;;;;;;11.73;6.82;;;22.90;55.20;;;;;;5059200;28;20028;-75
2023/12/14 04:33:31;;;;;;;10.35;6.63;;;22.90;55.20;;;;;;5064371;28;20036;-74
2023/12/14 04:35:57;;;;;;;10.10;6.07;;;23.10;55.30;;;;;;5071169;28;20039;-75
2023/12/14 04:38:23;;;;;;;7.20;5.35;;;23.10;55.40;;;;;;5067102;28;20036;-76
2023/12/14 04:40:49;;;;;;;9.48;6.15;;;22.90;55.30;;;;;;5068938;28;20622;-76
2023/12/14 04:43:15;;;;;;;10.45;5.93;;;23.00;55.40;;;;;;5057205;28;20033;-75
2023/12/14 04:45:41;;;;;;;11.10;5.97;;;22.90;55.30;;;;;;5020279;28;20059;-76
2023/12/14 04:48:08;;;;;;;11.10;6.82;;;23.00;55.30;;;;;;5071481;28;20349;-76
2023/12/14 04:50:34;;;;;;;13.60;6.88;;;23.10;55.40;;;;;;5071235;28;20119;-75
2023/12/14 04:53:00;;;;;;;12.02;7.25;;;22.90;55.30;;;;;;5041537;28;20646;-75
2023/12/14 04:55:26;;;;;;;12.90;7.72;;;22.90;55.20;;;;;;5061116;28;20037;-76
2023/12/14 04:57:52;;;;;;;11.40;6.93;;;23.10;55.30;;;;;;5052852;28;20097;-76
2023/12/14 05:00:18;;;;;;;12.07;7.20;;;22.90;55.20;;;;;;5069229;28;20532;-75
2023/12/14 05:02:50;;;;;;;9.88;6.63;;;23.00;55.20;;;;;;5052431;28;20537;-75
2023/12/14 05:05:16;;;;;;;10.68;7.03;;;23.00;55.10;;;;;;5040818;28;20453;-77
2023/12/14 05:07:42;;;;;;;10.73;7.22;;;23.00;55.10;;;;;;5064352;28;20068;-76
2023/12/14 05:10:09;;;;;;;10.38;6.20;;;23.10;55.20;;;;;;5069511;28;20111;-76
2023/12/14 05:12:35;;;;;;;11.63;7.72;;;23.00;55.00;;;;;;5014972;28;20115;-76
2023/12/14 05:15:01;;;;;;;12.75;8.70;;;23.00;55.00;;;;;;5054530;28;20056;-76
2023/12/14 05:17:27;;;;;;;13.20;9.20;;;23.00;55.10;;;;;;5050947;28;20041;-76
2023/12/14 05:19:53;;;;;;;13.40;7.85;;;22.90;55.10;;;;;;5050906;28;20052;-76
2023/12/14 05:22:19;;;;;;;10.18;6.97;;;23.00;55.10;;;;;;5054736;28;20036;-79
2023/12/14 05:24:47;;;;;;;18.83;10.15;;;22.90;55.20;;;;;;5057358;28;20465;-74
2023/12/14 05:27:13;;;;;;;12.30;7.80;;;23.00;55.40;;;;;;5056296;28;20466;-74
2023/12/14 05:29:39;;;;;;;18.50;10.35;;;23.00;55.60;;;;;;5054617;28;20040;-74
2023/12/14 05:32:05;;;;;;;16.98;11.50;;;22.90;55.80;;;;;;5054530;28;20017;-74
2023/12/14 05:34:31;;;;;;;16.15;10.68;;;22.90;55.90;;;;;;5036773;28;20041;-74
2023/12/14 05:36:57;;;;;;;16.35;11.00;;;22.80;55.90;;;;;;5036456;28;20128;-73
2023/12/14 05:39:23;;;;;;;21.17;11.10;;;22.90;56.10;;;;;;5056910;28;20238;-73
2023/12/14 05:41:49;;;;;;;21.35;13.52;;;22.90;56.20;;;;;;5061062;28;20110;-73
2023/12/14 05:44:15;;;;;;;27.77;14.25;;;22.80;56.10;;;;;;5037778;28;20029;-74
2023/12/14 05:46:42;;;;;;;9.27;5.43;;;22.90;56.30;;;;;;5054303;28;20360;-75
2023/12/14 05:49:08;;;;;;;7.47;3.97;;;22.90;55.90;;;;;;5062188;28;20453;-74
2023/12/14 05:51:36;;;;;;;5.38;4.65;;;22.90;54.80;;;;;;5058080;28;20040;-74
2023/12/14 05:54:02;;;;;;;7.88;4.93;;;22.90;53.60;;;;;;5058331;28;20400;-80
2023/12/14 05:56:29;;;;;;;14.75;5.80;;;22.90;54.20;;;;;;5068930;28;20476;-76
2023/12/14 05:58:55;;;;;;;9.23;6.05;;;23.00;55.30;;;;;;5064911;28;20036;-77
2023/12/14 06:01:23;;;;;;;6.85;5.63;;;23.10;55.20;;;;;;5073686;28;20510;-77
2023/12/14 06:03:50;;;;;;;7.93;5.78;;;23.20;50.70;;;;;;5059728;28;20037;-74
2023/12/14 06:06:16;;;;;;;8.52;5.93;;;23.20;48.10;;;;;;5057111;28;20029;-74
2023/12/14 06:08:42;;;;;;;10.45;6.30;;;23.20;46.90;;;;;;5053975;28;20025;-74
2023/12/14 06:11:08;;;;;;;22.48;12.50;;;23.10;46.10;;;;;;5063562;28;20037;-74
2023/12/14 06:13:34;;;;;;;23.88;13.15;;;23.10;51.40;;;;;;5053457;28;20091;-72
2023/12/14 06:16:00;;;;;;;28.02;14.63;;;23.20;53.30;;;;;;5054809;28;20060;-73
2023/12/14 06:18:26;;;;;;;27.52;15.02;;;23.20;53.80;;;;;;5017236;28;20029;-71
2023/12/14 06:20:53;;;;;;;23.13;13.52;;;23.20;54.20;;;;;;5063321;28;20436;-73
2023/12/14 06:23:19;;;;;;;32.05;15.18;;;23.30;54.60;;;;;;5063029;28;20461;-70
2023/12/14 06:25:45;;;;;;;25.58;14.82;;;23.20;54.80;;;;;;5061730;28;20421;-73
2023/12/14 06:28:12;;;;;;;22.95;14.43;;;23.20;54.90;;;;;;5062508;28;20037;-74
2023/12/14 06:30:38;;;;;;;26.50;14.05;;;23.20;54.90;;;;;;5043513;28;20532;-72
2023/12/14 06:33:04;;;;;;;19.75;13.73;;;23.20;55.00;;;;;;5060032;28;20465;-74
2023/12/14 06:35:30;;;;;;;24.17;14.25;;;23.20;54.90;;;;;;5063488;28;20044;-77
2023/12/14 06:37:56;;;;;;;22.70;14.45;;;23.00;54.80;;;;;;5027891;28;20056;-75
2023/12/14 06:40:22;;;;;;;7.43;5.00;;;23.20;56.10;;;;;;5061788;28;20433;-78
2023/12/14 06:42:49;;;;;;;9.15;5.78;;;23.40;54.90;;;;;;5064548;28;20136;-77
2023/12/14 06:45:15;;;;;;;9.20;5.22;;;23.40;52.60;;;;;;5062745;28;20357;-77
2023/12/14 06:47:43;;;;;;;13.35;7.38;;;23.40;51.10;;;;;;5025879;28;20049;-73
2023/12/14 06:50:10;;;;;;;9.98;6.57;;;23.50;52.50;;;;;;5025603;28;20049;-74
2023/12/14 06:52:36;;;;;;;10.82;7.97;;;23.50;51.10;;;;;;5044170;28;20025;-74
2023/12/14 06:55:02;;;;;;;13.07;8.70;;;23.50;51.90;;;;;;5062050;28;20388;-76
2023/12/14 06:57:29;;;;;;;12.20;7.78;;;23.60;50.30;;;;;;5058239;28;20021;-77
2023/12/14 06:59:55;;;;;;;9.68;7.97;;;23.50;48.30;;;;;;5059105;28;20039;-75
2023/12/14 07:02:21;;;;;;;17.20;7.75;;;23.40;46.30;;;;;;5065294;28;20125;-74
2023/12/14 07:04:47;;;;;;;12.50;7.38;;;23.40;46.10;;;;;;5055201;28;20029;-74
2023/12/14 07:07:13;;;;;;;9.25;6.70;;;23.40;44.80;;;;;;5052660;28;20032;-76
2023/12/14 07:09:39;;;;;;;22.10;6.55;;;23.40;43.90;;;;;;5054396;28;20032;-75
2023/12/14 07:12:05;;;;;;;25.23;13.55;;;23.50;44.70;;;;;;5066606;28;20111;-75
2023/12/14 07:14:31;;;;;;;22.05;13.63;;;23.60;52.10;;;;;;5072382;28;20040;-76
2023/12/14 07:16:57;;;;;;;26.42;14.52;;;23.50;53.90;;;;;;5066169;28;20056;-77
2023/12/14 07:19:23;;;;;;;20.23;13.07;;;23.70;54.40;;;;;;5059138;28;20094;-77
2023/12/14 07:21:49;;;;;;;21.92;12.82;;;23.60;54.20;;;;;;5072646;28;20028;-77
2023/12/14 07:24:16;;;;;;;8.77;4.43;;;23.30;55.20;;;;;;5072531;28;20036;-79
2023/12/14 07:26:42;;;;;;;5.75;3.28;;;23.60;53.90;;;;;;5054404;28;20025;-74
2023/12/14 07:29:08;;;;;;;6.85;3.90;;;23.50;53.50;;;;;;5034382;28;20041;-74
2023/12/14 07:31:34;;;;;;;8.52;4.22;;;23.50;53.70;;;;;;5052186;28;20037;-75
2023/12/14 07:34:00;;;;;;;7.63;4.22;;;23.40;53.50;;;;;;5051876;28;20044;-78
2023/12/14 07:36:26;;;;;;;10.85;6.25;;;23.40;53.40;;;;;;5059378;28;20048;-73
2023/12/14 07:38:53;;;;;;;8.88;4.80;;;23.40;53.30;;;;;;5069033;28;20039;-77
2023/12/14 07:41:19;;;;;;;6.70;4.60;;;23.30;53.20;;;;;;5064871;28;20098;-76
2023/12/14 07:43:46;;;;;;;10.07;6.95;;;23.40;53.10;;;;;;5051755;28;20034;-74
2023/12/14 07:46:12;;;;;;;7.68;5.22;;;23.40;53.10;;;;;;5051711;28;20115;-74
2023/12/14 07:48:38;;;;;;;9.88;5.47;;;23.30;53.00;;;;;;5050943;28;20120;-74
2023/12/14 07:51:04;;;;;;;11.20;5.97;;;23.40;55.10;;;;;;5051847;28;20033;-74
2023/12/14 07:53:30;;;;;;;8.43;5.07;;;23.40;54.70;;;;;;5060810;28;20032;-74
2023/12/14 07:55:58;;;;;;;6.75;4.68;;;23.40;53.80;;;;;;5069738;28;20039;-74
2023/12/14 07:58:25;;;;;;;8.48;5.20;;;23.40;53.50;;;;;;5071553;28;20036;-73
2023/12/14 08:00:51;;;;;;;16.52;9.63;;;23.40;53.30;;;;;;5071572;28;20522;-73
2023/12/14 08:03:17;;;;;;;8.80;5.78;;;23.40;53.20;;;;;;5071537;28;20032;-74
2023/12/14 08:05:43;;;;;;;15.55;10.15;;;23.40;53.20;;;;;;5071601;28;20066;-74
2023/12/14 08:08:09;;;;;;;9.57;6.03;;;23.50;53.30;;;;;;5071804;28;20064;-74
2023/12/14 08:10:35;;;;;;;8.15;5.82;;;23.50;54.10;;;;;;5065068;28;20461;-73
2023/12/14 08:13:02;;;;;;;11.63;7.13;;;23.60;53.60;;;;;;5015950;28;20037;-72
2023/12/14 08:15:28;;;;;;;10.55;6.47;;;23.70;52.60;;;;;;5050987;28;20095;-73
2023/12/14 08:17:54;;;;;;;11.38;7.47;;;23.70;52.40;;;;;;5051133;28;20068;-76
2023/12/14 08:20:20;;;;;;;18.65;10.00;;;23.90;50.60;;;;;;5051064;28;20029;-74
2023/12/14 08:22:47;;;;;;;12.95;7.63;;;23.70;50.20;;;;;;5069601;28;20067;-75
2023/12/14 08:25:17;;;;;;;10.57;6.60;;;23.70;50.90;;;;;;5012805;28;20465;-75
2023/12/14 08:27:44;;;;;;;8.52;6.03;;;23.70;51.20;;;;;;5033125;28;20044;-75
2023/12/14 08:30:11;;;;;;;17.27;9.57;;;23.70;51.20;;;;;;5050949;28;20369;-74
2023/12/14 08:32:37;;;;;;;9.35;6.50;;;23.70;50.80;;;;;;5050886;28;20029;-75
2023/12/14 08:35:04;;;;;;;9.75;6.60;;;23.60;50.80;;;;;;5050878;28;20539;-78
2023/12/14 08:37:30;;;;;;;18.20;10.15;;;23.60;51.90;;;;;;5032913;28;20388;-78
2023/12/14 08:39:56;;;;;;;10.45;6.65;;;23.50;51.80;;;;;;5052071;28;20103;-76
2023/12/14 08:42:22;;;;;;;24.50;13.15;;;23.60;52.10;;;;;;5050796;28;20037;-76
2023/12/14 08:44:49;;;;;;;12.30;6.53;;;23.60;51.70;;;;;;5032127;28;20041;-75
2023/12/14 08:47:15;;;;;;;11.63;8.20;;;23.50;51.60;;;;;;5050842;28;20044;-76
2023/12/14 08:49:41;;;;;;;16.88;9.25;;;23.50;51.70;;;;;;5051835;28;20391;-75
2023/12/14 08:52:07;;;;;;;11.85;6.60;;;23.60;51.80;;;;;;5051152;28;20036;-73
2023/12/14 08:54:33;;;;;;;9.98;6.75;;;23.50;51.60;;;;;;5050889;28;20234;-72
2023/12/14 08:57:00;;;;;;;10.10;6.78;;;23.60;51.30;;;;;;5069903;28;20131;-74
2023/12/14 08:59:27;;;;;;;15.07;6.88;;;23.50;50.90;;;;;;5025403;28;20068;-74
2023/12/14 09:01:53;;;;;;;10.90;7.22;;;23.50;50.70;;;;;;5051758;28;20082;-75
2023/12/14 09:04:19;;;;;;;25.98;13.60;;;23.50;50.60;;;;;;5050514;28;20178;-76
2023/12/14 09:06:45;;;;;;;11.32;7.40;;;23.40;50.30;;;;;;5032485;28;20037;-78
2023/12/14 09:09:11;;;;;;;20.08;11.30;;;23.50;50.60;;;;;;5050614;28;20037;-78
2023/12/14 09:11:37;;;;;;;11.77;7.20;;;23.50;50.90;;;;;;5064608;28;20133;-78
2023/12/14 09:14:04;;;;;;;9.70;6.65;;;23.50;51.10;;;;;;5070552;28;20029;-77
2023/12/14 09:16:29;;;;;;;17.67;10.35;;;23.50;51.10;;;;;;5060378;28;20064;-75
2023/12/14 09:18:55;;;;;;;9.70;6.93;;;23.40;51.00;;;;;;5050817;28;20029;-77
2023/12/14 09:21:22;;;;;;;9.95;6.03;;;23.40;51.10;;;;;;5032278;28;20029;-77
2023/12/14 09:23:48;;;;;;;22.25;12.30;;;23.40;51.10;;;;;;5049985;28;20033;-74
2023/12/14 09:26:14;;;;;;;22.38;12.90;;;23.50;51.20;;;;;;5025749;28;20045;-74
2023/12/14 09:28:42;;;;;;;21.50;12.60;;;23.50;51.10;;;;;;5010716;28;20045;-74
2023/12/14 09:31:08;;;;;;;23.17;11.43;;;23.30;51.10;;;;;;5028083;28;20040;-73
2023/12/14 09:33:34;;;;;;;24.17;11.85;;;23.30;51.40;;;;;;5027825;28;20034;-74
2023/12/14 09:36:00;;;;;;;22.27;11.95;;;23.30;51.40;;;;;;5028136;28;20517;-74
2023/12/14 09:38:26;;;;;;;19.38;11.63;;;23.20;51.40;;;;;;5028006;28;20041;-74
2023/12/14 09:40:52;;;;;;;19.38;12.23;;;23.30;51.60;;;;;;5024364;28;20120;-74
2023/12/14 09:43:18;;;;;;;22.38;12.23;;;23.10;51.80;;;;;;5011223;28;20117;-74
2023/12/14 09:45:47;;;;;;;19.88;11.15;;;23.10;52.30;;;;;;5027820;28;20045;-75
2023/12/14 09:48:15;;;;;;;18.83;11.63;;;23.00;52.30;;;;;;5027674;28;20102;-75
2023/12/14 09:50:42;;;;;;;18.35;10.55;;;23.20;52.50;;;;;;5027657;28;20030;-75
2023/12/14 09:53:08;;;;;;;19.80;10.88;;;23.00;52.40;;;;;;5024530;28;20197;-76
2023/12/14 09:55:34;;;;;;;17.92;10.88;;;23.00;52.50;;;;;;5024325;28;20044;-75
2023/12/14 09:58:02;;;;;;;18.80;11.63;;;23.00;52.50;;;;;;5046060;28;20053;-74
2023/12/14 10:00:37;;;;;;;17.70;10.77;;;23.00;52.50;;;;;;5050304;28;20484;-74
2023/12/14 10:03:39;;;;;;;15.95;10.93;;;23.10;52.70;;;;;;5050057;28;20098;-74
2023/12/14 10:06:05;;;;;;;20.20;9.93;;;23.10;52.80;;;;;;4966095;28;20079;-80
2023/12/14 10:08:31;;;;;;;20.63;11.30;;;22.90;52.80;;;;;;4965584;28;20866;-75
2023/12/14 10:10:57;;;;;;;18.60;10.15;;;22.90;52.90;;;;;;4968409;28;20043;-78
2023/12/14 10:13:37;;;;;;;16.80;8.98;;;23.10;53.10;;;;;;4969202;28;20247;-80
2023/12/14 10:16:03;;;;;;;15.82;9.35;;;23.00;53.10;;;;;;4969011;28;20074;-75
2023/12/14 10:18:31;;;;;;;16.38;9.50;;;23.00;53.10;;;;;;4971255;28;20050;-78
2023/12/14 10:20:57;;;;;;;17.52;9.30;;;23.00;53.10;;;;;;4969394;28;20045;-76
2023/12/14 10:23:24;;;;;;;15.13;9.32;;;23.00;53.20;;;;;;4969276;28;20113;-80
2023/12/14 10:25:50;;;;;;;20.52;10.05;;;23.10;53.20;;;;;;4969324;28;20209;-78
2023/12/14 10:28:17;;;;;;;15.32;8.82;;;23.00;53.20;;;;;;4970145;28;20043;-74
2023/12/14 10:30:43;;;;;;;15.68;9.52;;;23.00;53.20;;;;;;4967998;28;20062;-76
2023/12/14 10:33:09;;;;;;;16.42;9.98;;;23.10;53.40;;;;;;4968603;28;20145;-75
2023/12/14 10:35:36;;;;;;;15.77;9.38;;;23.00;53.40;;;;;;4936104;28;20059;-79
2023/12/14 10:38:09;;;;;;;11.10;7.35;;;23.00;53.40;;;;;;4968859;28;20039;-78
2023/12/14 10:40:40;;;;;;;;;;;22.90;53.60;;;;;;5028665;28;20140;-78
2023/12/14 10:43:06;;;;;;;6.60;4.70;;;22.90;53.60;;;;;;5050467;28;20434;-79
2023/12/14 10:45:33;;;;;;;10.30;6.72;;;23.00;53.70;;;;;;5051146;28;20025;-74
2023/12/14 10:48:00;;;;;;;8.68;4.88;;;22.90;53.70;;;;;;5052775;28;20111;-73
2023/12/14 10:50:30;;;;;;;5.90;4.60;;;23.00;53.70;;;;;;5053074;28;20068;-73
2023/12/14 10:52:58;;;;;;;17.98;9.05;;;22.90;53.70;;;;;;5058859;28;20366;-74
2023/12/14 10:55:43;;;;;;;13.85;8.20;;;22.90;53.50;;;;;;5070802;28;20036;-71
2023/12/14 10:58:09;;;;;;;13.00;8.48;;;22.90;53.30;;;;;;5069627;28;20482;-75
2023/12/14 11:00:36;;;;;;;11.00;7.18;;;23.00;54.20;;;;;;5069282;28;20035;-75
2023/12/14 11:03:05;;;;;;;12.77;8.40;;;22.90;54.50;;;;;;5057814;28;20072;-72
2023/12/14 11:05:33;;;;;;;13.02;7.32;;;22.90;54.80;;;;;;5011028;28;20493;-73
2023/12/14 11:08:09;;;;;;;11.48;7.88;;;23.00;54.80;;;;;;4998443;28;20046;-72
2023/12/14 11:10:39;;;;;;;15.75;8.38;;;23.00;54.70;;;;;;5021668;28;20117;-81
2023/12/14 11:13:13;;;;;;;10.95;7.75;;;23.00;55.00;;;;;;5010969;28;20872;-72
2023/12/14 11:15:49;;;;;;;10.27;8.32;;;23.00;54.80;;;;;;5044865;28;20533;-71
2023/12/14 11:18:15;;;;;;;8.88;6.75;;;23.10;54.70;;;;;;5045814;28;20029;-71
2023/12/14 11:20:48;;;;;;;9.07;6.88;;;23.00;54.50;;;;;;5056757;28;20064;-74
2023/12/14 11:23:27;;;;;;;10.18;7.40;;;23.10;54.50;;;;;;5059251;28;20407;-74
2023/12/14 11:25:54;;;;;;;9.32;6.97;;;23.00;54.40;;;;;;5018581;28;20056;-70
2023/12/14 11:28:20;;;;;;;10.13;7.75;;;23.10;54.20;;;;;;5060574;28;20115;-69
2023/12/14 11:30:46;;;;;;;9.20;6.63;;;23.10;54.20;;;;;;5058224;28;20105;-69
2023/12/14 11:33:13;;;;;;;9.73;6.63;;;23.10;54.20;;;;;;5051376;28;20040;-73
2023/12/14 11:35:40;;;;;;;8.27;6.15;;;23.20;54.20;;;;;;5067833;28;20041;-75
2023/12/14 11:38:15;;;;;;;34.20;10.23;;;23.20;54.30;;;;;;5078098;28;20058;-74
2023/12/14 11:40:45;;;;;;;10.60;6.43;;;23.60;53.80;;;;;;5081860;28;20036;-72
2023/12/14 11:43:11;;;;;;;10.90;6.38;;;23.70;56.10;;;;;;5076088;28;20032;-72
2023/12/14 11:45:39;;;;;;;7.95;6.13;;;23.80;57.00;;;;;;5079088;28;20519;-72
2023/12/14 11:48:07;;;;;;;8.55;6.50;;;23.70;56.70;;;;;;5075716;28;20025;-73
2023/12/14 11:50:34;;;;;;;8.43;5.97;;;23.70;56.60;;;;;;5081200;28;20119;-74
2023/12/14 11:53:04;;;;;;;7.47;5.95;;;23.70;54.50;;;;;;5078494;28;20025;-72
2023/12/14 11:55:31;;;;;;;7.78;6.05;;;23.80;52.30;;;;;;5083438;28;20092;-73
2023/12/14 11:57:58;;;;;;;9.15;6.13;;;23.80;49.60;;;;;;5081245;28;20033;-75
2023/12/14 12:00:26;;;;;;;7.60;5.68;;;23.80;48.40;;;;;;5074799;28;20028;-74
2023/12/14 12:02:52;;;;;;;7.45;5.57;;;23.80;49.70;;;;;;5040267;28;20071;-74
2023/12/14 12:05:19;;;;;;;25.75;7.22;;;23.90;49.30;;;;;;5085715;28;20363;-72
2023/12/14 12:07:45;;;;;;;7.55;5.68;;;23.90;49.60;;;;;;5081815;28;20028;-76
2023/12/14 12:10:12;;;;;;;7.82;5.95;;;24.00;49.20;;;;;;5086961;28;20032;-74
2023/12/14 12:12:38;;;;;;;6.38;4.95;;;24.00;49.00;;;;;;5077752;28;20380;-75
2023/12/14 12:15:05;;;;;;;6.25;4.75;;;24.00;48.00;;;;;;5078622;28;20064;-75
2023/12/14 12:17:37;;;;;;;9.48;5.07;;;24.00;46.80;;;;;;5041905;28;20040;-74
2023/12/14 12:20:05;;;;;;;6.00;4.85;;;24.00;45.40;;;;;;5069688;28;20424;-75
2023/12/14 12:22:31;;;;;;;5.22;4.32;;;24.10;46.60;;;;;;5052132;28;20045;-76
2023/12/14 12:24:58;;;;;;;8.00;4.95;;;24.10;45.50;;;;;;5063284;28;20037;-75
2023/12/14 12:27:24;;;;;;;4.95;4.45;;;24.00;46.50;;;;;;5055395;28;20031;-77
2023/12/14 12:29:53;;;;;;;5.43;3.97;;;24.00;44.30;;;;;;5052388;28;20535;-75
2023/12/14 12:32:19;;;;;;;8.65;5.22;;;24.00;46.30;;;;;;5061050;28;20112;-74
2023/12/14 12:34:45;;;;;;;6.30;4.68;;;24.10;47.70;;;;;;5070359;28;20070;-80